This is the latest recevied weather packets stored in our database for station/object WK7G. If no packets are shown the sender has not sent any weather packets the latest 10 day(s).
| Time | Temp. | Humidity | Pressure | Rain* | Wind** | Luminosity | Snow |
|---|---|---|---|---|---|---|---|
| 1777948914 | 8.89° C | 64% | 1001.8 hPa | 0 mm | - | 0 W/m² | - |
| 1777948611 | 10° C | 59% | 1001.8 hPa | 0 mm | - | 0 W/m² | - |
| 1777948309 | 10° C | 60% | 1001.6 hPa | 0 mm | - | 1 W/m² | - |
| 1777948006 | 10.56° C | 60% | 1001.9 hPa | 0 mm | - | 3 W/m² | - |
| 1777947703 | 10.56° C | 58% | 1001.5 hPa | 0 mm | - | 4 W/m² | - |
| 1777947399 | 10° C | 60% | 1001.6 hPa | 0 mm | - | 6 W/m² | - |
| 1777947096 | 10° C | 60% | 1001.5 hPa | 0 mm | - | 10 W/m² | - |
| 1777946792 | 10.56° C | 58% | 1001.3 hPa | 0 mm | - | 13 W/m² | - |
| 1777946488 | 11.67° C | 55% | 1001.4 hPa | 0 mm | - | 16 W/m² | - |
| 1777946185 | 11.67° C | 54% | 1001.8 hPa | 0 mm | - | 20 W/m² | - |
| 1777945882 | 12.78° C | 51% | 1001.5 hPa | 0 mm | - | 24 W/m² | - |
| 1777945579 | 13.33° C | 49% | 1001.8 hPa | 0 mm | - | 29 W/m² | - |
| 1777945276 | 13.89° C | 48% | 1001.6 hPa | 0 mm | - | 35 W/m² | - |
| 1777944973 | 13.89° C | 48% | 1001.5 hPa | 0 mm | - | 43 W/m² | - |
| 1777944670 | 14.44° C | 48% | 1001.8 hPa | 0 mm | - | 60 W/m² | - |
| 1777944369 | 14.44° C | 47% | 1001.8 hPa | 0 mm | - | 69 W/m² | - |
| 1777944065 | 14.44° C | 46% | 1001.9 hPa | 0 mm | - | 84 W/m² | - |
| 1777943760 | 14.44° C | 48% | 1001.9 hPa | 0 mm | - | 77 W/m² | - |
| 1777943459 | 13.89° C | 47% | 1001.9 hPa | 0 mm | - | 124 W/m² | - |
| 1777943159 | 13.89° C | 48% | 1001.9 hPa | 0 mm | - | 85 W/m² | - |
| 1777942855 | 13.89° C | 47% | 1002.2 hPa | 0 mm | - | 58 W/m² | - |
| 1777942552 | 13.89° C | 48% | 1002 hPa | 0 mm | - | 74 W/m² | - |
| 1777942249 | 13.89° C | 48% | 1002 hPa | 0 mm | - | 109 W/m² | - |
| 1777941946 | 14.44° C | 48% | 1001.8 hPa | 0 mm | - | 192 W/m² | - |
| 1777941643 | 14.44° C | 45% | 1001.9 hPa | 0 mm | - | 252 W/m² | - |
* Rain latest hour (hover to see other rain measurements)
** Current wind speed in m/s (hover to see current wind gust speed)